Time;durP1;ratioP1;P1;durP2;ratioP2;P2;SDS_P1;SDS_P2;PMS_P1;PMS_P2;Temp;Humidity;BMP_temperature;BMP_pressure;BME280_temperature;BME280_humidity;BME280_pressure;Samples;Min_cycle;Max_cycle;Signal;HPM_P1;HPM_P2
2023/12/23 00:02:08;;;;;;;6.72;1.65;;;;;;;;;;5062155;28;20048;-82
2023/12/23 00:04:35;;;;;;;5.05;1.60;;;;;;;;;;5073131;28;20061;-82
2023/12/23 00:07:00;;;;;;;7.50;1.60;;;;;;;;;;5073337;28;20048;-82
2023/12/23 00:09:29;;;;;;;6.28;1.50;;;;;;;;;;5073756;28;20491;-82
2023/12/23 00:11:56;;;;;;;6.65;1.63;;;;;;;;;;5072617;28;20053;-82
2023/12/23 00:14:22;;;;;;;5.22;1.65;;;;;;;;;;5072738;28;20060;-82
2023/12/23 00:16:49;;;;;;;7.05;1.70;;;;;;;;;;5072064;28;20409;-82
2023/12/23 00:19:16;;;;;;;5.60;1.50;;;;;;;;;;5072930;28;20059;-82
2023/12/23 00:21:43;;;;;;;6.45;2.20;;;;;;;;;;5073085;28;20378;-82
2023/12/23 00:24:09;;;;;;;4.30;1.58;;;;;;;;;;5071039;28;20060;-81
2023/12/23 00:26:38;;;;;;;7.47;1.95;;;;;;;;;;5064243;28;20416;-82
2023/12/23 00:29:05;;;;;;;5.75;1.70;;;;;;;;;;5069623;28;20075;-82
2023/12/23 00:31:32;;;;;;;5.47;1.77;;;;;;;;;;5072446;28;20048;-82
2023/12/23 00:33:58;;;;;;;8.40;2.05;;;;;;;;;;5057380;28;20052;-82
2023/12/23 00:36:25;;;;;;;7.85;1.80;;;;;;;;;;5052761;28;20398;-82
2023/12/23 00:38:52;;;;;;;5.93;1.60;;;;;;;;;;5052557;28;20064;-82
2023/12/23 00:41:19;;;;;;;6.63;1.50;;;;;;;;;;5052619;28;20052;-82
2023/12/23 00:43:47;;;;;;;6.28;1.77;;;;;;;;;;5059918;28;20055;-81
2023/12/23 00:46:14;;;;;;;7.57;1.85;;;;;;;;;;5072788;28;20044;-82
2023/12/23 00:48:41;;;;;;;5.45;1.58;;;;;;;;;;5072596;28;20138;-82
2023/12/23 00:51:09;;;;;;;6.47;1.63;;;;;;;;;;5054481;28;20052;-82
2023/12/23 00:53:36;;;;;;;7.20;2.13;;;;;;;;;;5052538;28;20052;-82
2023/12/23 00:56:03;;;;;;;5.70;1.40;;;;;;;;;;5052192;28;20491;-82
2023/12/23 00:58:30;;;;;;;6.97;1.60;;;;;;;;;;5052779;28;20060;-82
2023/12/23 01:00:58;;;;;;;8.43;1.52;;;;;;;;;;5052091;28;20053;-82
2023/12/23 01:03:24;;;;;;;3.60;1.45;;;;;;;;;;5062722;28;20468;-83
2023/12/23 01:05:51;;;;;;;4.72;1.52;;;;;;;;;;5071892;28;20496;-82
2023/12/23 01:08:18;;;;;;;6.18;1.60;;;;;;;;;;5072586;28;20056;-82
2023/12/23 01:10:45;;;;;;;7.20;2.08;;;;;;;;;;5072342;28;20056;-82
2023/12/23 01:13:12;;;;;;;5.63;1.42;;;;;;;;;;5072743;28;20060;-82
2023/12/23 01:15:38;;;;;;;7.00;1.58;;;;;;;;;;5072489;28;20052;-82
2023/12/23 01:18:06;;;;;;;8.85;2.40;;;;;;;;;;5071244;28;20048;-82
2023/12/23 01:20:34;;;;;;;9.55;1.80;;;;;;;;;;5072391;28;20063;-82
2023/12/23 01:23:00;;;;;;;5.68;1.70;;;;;;;;;;5072391;28;20075;-82
2023/12/23 01:25:27;;;;;;;7.65;1.67;;;;;;;;;;5071763;28;20059;-82
2023/12/23 01:27:54;;;;;;;7.72;1.83;;;;;;;;;;5071829;28;20057;-81
2023/12/23 01:30:22;;;;;;;8.38;1.90;;;;;;;;;;5070809;28;20049;-82
2023/12/23 01:32:49;;;;;;;6.68;1.55;;;;;;;;;;5071340;28;20060;-82
2023/12/23 01:35:17;;;;;;;7.82;1.77;;;;;;;;;;5071689;28;20048;-82
2023/12/23 01:37:44;;;;;;;5.43;1.55;;;;;;;;;;5072118;28;20064;-82
2023/12/23 01:40:12;;;;;;;8.00;2.17;;;;;;;;;;5072262;28;20425;-82
2023/12/23 01:42:39;;;;;;;5.47;1.60;;;;;;;;;;5072398;28;20056;-82
2023/12/23 01:45:07;;;;;;;6.63;1.63;;;;;;;;;;5072199;28;20068;-82
2023/12/23 01:47:38;;;;;;;5.68;2.08;;;;;;;;;;5071447;28;20055;-82
2023/12/23 01:50:05;;;;;;;8.18;2.03;;;;;;;;;;5072038;28;20059;-82
2023/12/23 01:52:34;;;;;;;5.72;1.85;;;;;;;;;;5072032;28;20060;-82
2023/12/23 01:55:02;;;;;;;5.33;1.23;;;;;;;;;;5073379;28;20052;-82
2023/12/23 01:57:28;;;;;;;9.52;1.65;;;;;;;;;;5075290;28;20056;-82
2023/12/23 01:59:55;;;;;;;5.07;1.40;;;;;;;;;;5077099;28;20071;-82
2023/12/23 02:02:22;;;;;;;6.35;1.73;;;;;;;;;;5075229;28;20056;-82
2023/12/23 02:04:49;;;;;;;4.95;1.40;;;;;;;;;;5074779;28;20056;-82
2023/12/23 02:07:16;;;;;;;5.47;1.48;;;;;;;;;;5075353;28;20056;-82
2023/12/23 02:09:44;;;;;;;6.72;1.55;;;;;;;;;;5075660;28;20052;-82
2023/12/23 02:12:16;;;;;;;6.40;1.33;;;;;;;;;;5072618;28;20497;-82
2023/12/23 02:14:46;;;;;;;4.93;1.40;;;;;;;;;;5075348;28;20068;-82
2023/12/23 02:17:13;;;;;;;5.18;1.23;;;;;;;;;;5075240;28;20052;-82
2023/12/23 02:19:40;;;;;;;5.32;1.27;;;;;;;;;;5074735;28;20421;-82
2023/12/23 02:22:08;;;;;;;8.52;1.60;;;;;;;;;;5075552;28;20509;-82
2023/12/23 02:24:35;;;;;;;6.53;1.80;;;;;;;;;;5075239;28;20048;-82
2023/12/23 02:27:05;;;;;;;4.82;1.33;;;;;;;;;;5075145;28;20490;-82
2023/12/23 02:29:32;;;;;;;8.00;1.40;;;;;;;;;;5075231;28;20063;-82
2023/12/23 02:32:00;;;;;;;3.10;1.35;;;;;;;;;;5074908;28;20052;-82
2023/12/23 02:34:27;;;;;;;6.07;1.52;;;;;;;;;;5073780;28;20056;-82
2023/12/23 02:36:54;;;;;;;4.10;1.40;;;;;;;;;;5074740;28;20048;-82
2023/12/23 02:39:22;;;;;;;7.75;1.55;;;;;;;;;;5075292;28;20441;-82
2023/12/23 02:41:49;;;;;;;6.28;1.40;;;;;;;;;;5074531;28;20052;-82
2023/12/23 02:44:16;;;;;;;8.43;2.00;;;;;;;;;;5075020;28;20059;-82
2023/12/23 02:46:42;;;;;;;7.07;1.80;;;;;;;;;;5074484;28;20052;-82
2023/12/23 02:49:09;;;;;;;7.78;2.17;;;;;;;;;;5062898;28;20045;-82
2023/12/23 02:51:36;;;;;;;7.45;1.70;;;;;;;;;;5054321;28;20075;-82
2023/12/23 02:54:03;;;;;;;6.60;1.98;;;;;;;;;;5054078;28;20072;-82
2023/12/23 02:56:31;;;;;;;7.20;2.03;;;;;;;;;;5068804;28;20059;-82
2023/12/23 02:58:58;;;;;;;6.10;2.20;;;;;;;;;;5074900;28;20067;-82
2023/12/23 03:01:25;;;;;;;7.32;2.00;;;;;;;;;;5070641;28;20056;-82
2023/12/23 03:03:51;;;;;;;5.50;1.92;;;;;;;;;;5066484;28;20063;-81
2023/12/23 03:06:18;;;;;;;7.95;2.15;;;;;;;;;;5073334;28;20413;-82
2023/12/23 03:08:45;;;;;;;7.75;2.30;;;;;;;;;;5074077;28;20059;-82
2023/12/23 03:11:12;;;;;;;11.15;2.53;;;;;;;;;;5074161;28;20052;-82
2023/12/23 03:13:40;;;;;;;5.53;2.78;;;;;;;;;;5074126;28;20138;-82
2023/12/23 03:16:14;;;;;;;5.90;2.00;;;;;;;;;;5074141;28;20056;-82
2023/12/23 03:18:41;;;;;;;4.88;1.80;;;;;;;;;;5073539;28;20057;-82
2023/12/23 03:21:08;;;;;;;7.45;2.00;;;;;;;;;;5073680;28;20052;-82
2023/12/23 03:23:34;;;;;;;7.80;2.00;;;;;;;;;;5073806;28;20057;-81
2023/12/23 03:26:01;;;;;;;6.68;2.03;;;;;;;;;;5073969;28;20383;-82
2023/12/23 03:28:28;;;;;;;8.52;2.42;;;;;;;;;;5073754;28;20442;-81
2023/12/23 03:30:56;;;;;;;8.43;2.42;;;;;;;;;;5074064;28;20056;-82
2023/12/23 03:33:23;;;;;;;6.57;2.78;;;;;;;;;;5072131;28;20369;-81
2023/12/23 03:35:50;;;;;;;7.72;2.38;;;;;;;;;;5073772;28;20501;-82
2023/12/23 03:38:17;;;;;;;9.30;3.38;;;;;;;;;;5073453;28;20052;-82
2023/12/23 03:40:43;;;;;;;8.88;2.85;;;;;;;;;;5072556;28;20061;-82
2023/12/23 03:43:10;;;;;;;7.75;3.30;;;;;;;;;;5071123;28;20053;-82
2023/12/23 03:45:38;;;;;;;7.88;2.13;;;;;;;;;;5074015;28;20044;-82
2023/12/23 03:48:07;;;;;;;7.05;2.70;;;;;;;;;;5064085;28;20059;-82
2023/12/23 03:50:34;;;;;;;8.83;2.73;;;;;;;;;;5051268;28;20049;-82
2023/12/23 03:53:01;;;;;;;5.18;2.60;;;;;;;;;;5052286;28;20057;-82
2023/12/23 03:55:32;;;;;;;7.82;3.42;;;;;;;;;;5052258;28;20509;-82
2023/12/23 03:57:59;;;;;;;6.18;3.17;;;;;;;;;;5067129;28;20063;-82
2023/12/23 04:00:26;;;;;;;8.05;4.00;;;;;;;;;;5073672;28;20056;-81
2023/12/23 04:02:53;;;;;;;7.85;4.85;;;;;;;;;;5071430;28;21233;-82
2023/12/23 04:05:21;;;;;;;9.98;5.18;;;;;;;;;;5069773;28;20078;-82
2023/12/23 04:07:48;;;;;;;8.50;5.25;;;;;;;;;;5052816;28;20049;-82
2023/12/23 04:10:15;;;;;;;9.07;5.75;;;;;;;;;;5053075;28;20057;-82
2023/12/23 04:12:42;;;;;;;7.63;5.18;;;;;;;;;;5052797;28;20057;-81
2023/12/23 04:15:09;;;;;;;6.43;4.22;;;;;;;;;;5052492;28;20115;-81
2023/12/23 04:17:36;;;;;;;5.18;3.30;;;;;;;;;;5056411;28;20074;-81
2023/12/23 04:20:03;;;;;;;6.50;3.65;;;;;;;;;;5062067;28;20063;-82
2023/12/23 04:22:31;;;;;;;6.18;3.10;;;;;;;;;;5063177;28;20071;-81
2023/12/23 04:24:58;;;;;;;5.95;3.25;;;;;;;;;;5072172;28;20056;-81
2023/12/23 04:27:25;;;;;;;7.60;3.30;;;;;;;;;;5072960;28;20060;-81
2023/12/23 04:29:52;;;;;;;9.05;3.88;;;;;;;;;;5072921;28;20064;-81
2023/12/23 04:32:19;;;;;;;6.38;4.10;;;;;;;;;;5072439;28;20421;-81
2023/12/23 04:34:45;;;;;;;7.78;4.38;;;;;;;;;;5072639;28;20059;-81
2023/12/23 04:37:12;;;;;;;8.02;4.65;;;;;;;;;;5071953;28;20048;-81
2023/12/23 04:39:40;;;;;;;8.90;4.78;;;;;;;;;;5072409;28;20049;-81
2023/12/23 04:42:07;;;;;;;9.57;5.10;;;;;;;;;;5072477;28;20508;-81
2023/12/23 04:44:34;;;;;;;10.77;5.55;;;;;;;;;;5071826;28;20056;-81
2023/12/23 04:47:01;;;;;;;8.18;5.00;;;;;;;;;;5072578;28;20053;-81
2023/12/23 04:49:27;;;;;;;8.93;5.13;;;;;;;;;;5054789;28;20064;-81
2023/12/23 04:51:54;;;;;;;10.02;5.40;;;;;;;;;;5052942;28;20440;-81
2023/12/23 04:54:21;;;;;;;7.88;4.80;;;;;;;;;;5054270;28;20044;-81
2023/12/23 04:56:49;;;;;;;7.68;4.72;;;;;;;;;;5052890;28;20053;-81
2023/12/23 04:59:16;;;;;;;7.18;4.95;;;;;;;;;;5053009;28;20053;-81
2023/12/23 05:01:43;;;;;;;8.45;4.93;;;;;;;;;;5072845;28;20052;-81
2023/12/23 05:04:09;;;;;;;8.38;4.47;;;;;;;;;;5070640;28;20053;-81
2023/12/23 05:06:36;;;;;;;8.20;4.57;;;;;;;;;;5072388;28;20049;-81
2023/12/23 05:09:05;;;;;;;9.13;5.00;;;;;;;;;;5072330;28;20057;-81
2023/12/23 05:11:32;;;;;;;9.15;5.15;;;;;;;;;;5072629;28;20517;-81
2023/12/23 05:14:00;;;;;;;8.45;5.45;;;;;;;;;;5072630;28;20528;-81
2023/12/23 05:16:27;;;;;;;9.95;6.97;;;;;;;;;;5071988;28;20406;-82
2023/12/23 05:18:54;;;;;;;8.13;5.57;;;;;;;;;;5070966;28;20052;-82
2023/12/23 05:21:21;;;;;;;9.32;6.20;;;;;;;;;;5072457;28;20528;-82
2023/12/23 05:23:48;;;;;;;10.23;6.47;;;;;;;;;;5071990;28;20048;-82
2023/12/23 05:26:17;;;;;;;7.45;5.70;;;;;;;;;;5072079;28;20053;-81
2023/12/23 05:28:44;;;;;;;9.85;5.72;;;;;;;;;;5072386;28;20063;-82
2023/12/23 05:31:12;;;;;;;11.05;7.20;;;;;;;;;;5068559;28;20056;-81
2023/12/23 05:33:39;;;;;;;10.07;7.10;;;;;;;;;;5063741;28;20057;-82
2023/12/23 05:36:06;;;;;;;9.98;7.32;;;;;;;;;;5075692;28;20413;-82
2023/12/23 05:38:33;;;;;;;10.75;7.70;;;;;;;;;;5076068;28;20061;-81
2023/12/23 05:41:01;;;;;;;11.80;7.40;;;;;;;;;;5075975;28;20060;-81
2023/12/23 05:43:27;;;;;;;12.07;9.02;;;;;;;;;;5076086;28;20107;-82
2023/12/23 05:45:54;;;;;;;15.90;9.32;;;;;;;;;;5077099;28;20064;-81
2023/12/23 05:48:22;;;;;;;10.98;7.90;;;;;;;;;;5075455;28;20056;-80
2023/12/23 05:50:49;;;;;;;12.77;8.05;;;;;;;;;;5075647;28;20052;-81
2023/12/23 05:53:16;;;;;;;14.80;9.35;;;;;;;;;;5075452;28;20053;-82
2023/12/23 05:55:43;;;;;;;13.10;9.10;;;;;;;;;;5075454;28;20134;-82
2023/12/23 05:58:09;;;;;;;14.40;10.02;;;;;;;;;;5075280;28;20068;-82
2023/12/23 06:00:36;;;;;;;17.00;10.63;;;;;;;;;;5073282;28;20057;-82
2023/12/23 06:03:03;;;;;;;13.50;10.15;;;;;;;;;;5075538;28;20052;-82
2023/12/23 06:05:31;;;;;;;16.50;10.70;;;;;;;;;;5074579;28;20057;-82
2023/12/23 06:07:58;;;;;;;15.40;9.98;;;;;;;;;;5075770;28;20045;-82
2023/12/23 06:10:25;;;;;;;14.65;9.75;;;;;;;;;;5075553;28;20063;-82
2023/12/23 06:12:52;;;;;;;16.17;10.02;;;;;;;;;;5075937;28;20056;-81
2023/12/23 06:15:18;;;;;;;13.18;9.27;;;;;;;;;;5076119;28;20056;-82
2023/12/23 06:17:48;;;;;;;15.43;10.57;;;;;;;;;;5075605;28;20059;-81
2023/12/23 06:20:15;;;;;;;15.10;11.35;;;;;;;;;;5074942;28;20386;-81
2023/12/23 06:22:43;;;;;;;17.10;11.10;;;;;;;;;;5057610;28;20056;-81
2023/12/23 06:25:10;;;;;;;16.05;10.40;;;;;;;;;;5055503;28;20402;-81
2023/12/23 06:27:36;;;;;;;18.58;12.07;;;;;;;;;;5054594;28;20056;-82
2023/12/23 06:30:03;;;;;;;15.43;11.00;;;;;;;;;;5055283;28;20056;-82
2023/12/23 06:32:30;;;;;;;20.17;12.10;;;;;;;;;;5073310;28;20044;-82
2023/12/23 06:35:00;;;;;;;16.77;12.38;;;;;;;;;;5073322;28;20060;-82
2023/12/23 06:37:26;;;;;;;17.40;12.23;;;;;;;;;;5075252;28;20049;-82
2023/12/23 06:39:55;;;;;;;15.65;11.63;;;;;;;;;;5075273;28;20067;-85
2023/12/23 06:42:21;;;;;;;17.27;11.77;;;;;;;;;;5073628;28;20489;-85
2023/12/23 06:44:48;;;;;;;17.58;13.57;;;;;;;;;;5074853;28;20052;-86
2023/12/23 06:47:15;;;;;;;17.65;12.82;;;;;;;;;;5074954;28;20053;-85
2023/12/23 06:49:42;;;;;;;17.75;12.30;;;;;;;;;;5072604;28;20075;-85
2023/12/23 06:52:09;;;;;;;18.42;12.98;;;;;;;;;;5074653;28;20071;-86
2023/12/23 06:54:35;;;;;;;17.52;13.52;;;;;;;;;;5074862;28;20052;-86
2023/12/23 06:57:04;;;;;;;24.85;14.25;;;;;;;;;;5074636;28;20053;-86
2023/12/23 06:59:30;;;;;;;23.40;14.00;;;;;;;;;;5074667;28;20512;-86
2023/12/23 07:01:57;;;;;;;24.33;14.52;;;;;;;;;;5060056;28;20072;-86
2023/12/23 07:04:24;;;;;;;17.60;13.27;;;;;;;;;;5056362;28;20063;-85
2023/12/23 07:06:51;;;;;;;22.02;14.23;;;;;;;;;;5074017;28;20059;-86
2023/12/23 07:09:18;;;;;;;22.33;14.32;;;;;;;;;;5074530;28;20493;-85
2023/12/23 07:11:46;;;;;;;27.20;15.13;;;;;;;;;;5073866;28;20048;-85
2023/12/23 07:14:14;;;;;;;23.55;14.55;;;;;;;;;;5073701;28;20063;-85
2023/12/23 07:16:42;;;;;;;21.17;14.20;;;;;;;;;;5073937;28;20056;-86
2023/12/23 07:19:09;;;;;;;18.05;12.85;;;;;;;;;;5073816;28;20056;-86
2023/12/23 07:21:36;;;;;;;21.52;14.57;;;;;;;;;;5073745;28;20061;-86
2023/12/23 07:24:03;;;;;;;24.02;13.30;;;;;;;;;;5065106;28;20478;-86
2023/12/23 07:26:30;;;;;;;17.75;13.05;;;;;;;;;;5073854;28;20414;-86
2023/12/23 07:28:57;;;;;;;17.55;13.32;;;;;;;;;;5073967;28;20048;-86
2023/12/23 07:31:26;;;;;;;19.00;12.98;;;;;;;;;;5063886;28;20056;-86
2023/12/23 07:33:53;;;;;;;18.55;13.23;;;;;;;;;;5053904;28;20410;-86
2023/12/23 07:36:19;;;;;;;22.48;11.57;;;;;;;;;;5068110;28;20052;-86
2023/12/23 07:38:46;;;;;;;19.15;12.43;;;;;;;;;;5053506;28;20045;-86
2023/12/23 07:41:13;;;;;;;18.80;12.65;;;;;;;;;;5053650;28;20057;-87
2023/12/23 07:43:40;;;;;;;20.00;12.98;;;;;;;;;;5053979;28;20052;-87
2023/12/23 07:46:07;;;;;;;19.95;12.57;;;;;;;;;;5053604;28;20063;-87
2023/12/23 07:48:35;;;;;;;22.75;13.50;;;;;;;;;;5055007;28;20379;-87
2023/12/23 07:51:05;;;;;;;23.52;13.07;;;;;;;;;;5067985;28;20079;-87
2023/12/23 07:53:32;;;;;;;18.13;12.63;;;;;;;;;;5070414;28;20406;-86
2023/12/23 07:55:59;;;;;;;17.75;11.23;;;;;;;;;;5069927;28;20061;-86
2023/12/23 07:58:26;;;;;;;18.52;12.23;;;;;;;;;;5053261;28;20045;-87
2023/12/23 08:00:53;;;;;;;21.73;12.77;;;;;;;;;;5059908;28;20049;-87
2023/12/23 08:03:20;;;;;;;18.27;10.85;;;;;;;;;;5073090;28;20063;-86
2023/12/23 08:05:48;;;;;;;21.00;13.82;;;;;;;;;;5070044;28;20052;-85
2023/12/23 08:08:15;;;;;;;18.58;11.30;;;;;;;;;;5073261;28;20060;-87
2023/12/23 08:10:42;;;;;;;24.98;14.45;;;;;;;;;;5073276;28;20048;-86
2023/12/23 08:13:08;;;;;;;22.75;15.57;;;;;;;;;;5053398;28;20402;-86
2023/12/23 08:15:35;;;;;;;20.70;13.13;;;;;;;;;;5052776;28;20053;-86
2023/12/23 08:18:02;;;;;;;23.05;13.93;;;;;;;;;;5052689;28;20056;-86
2023/12/23 08:20:29;;;;;;;21.90;12.48;;;;;;;;;;5058021;28;20083;-86
2023/12/23 08:22:57;;;;;;;18.42;12.60;;;;;;;;;;5072309;28;20056;-87
2023/12/23 08:25:24;;;;;;;19.58;12.45;;;;;;;;;;5073190;28;20127;-86
2023/12/23 08:27:50;;;;;;;18.00;11.30;;;;;;;;;;5072567;28;20064;-86
2023/12/23 08:30:17;;;;;;;12.60;10.35;;;;;;;;;;5072703;28;20052;-86
2023/12/23 08:32:44;;;;;;;15.30;11.10;;;;;;;;;;5072433;28;20048;-86
2023/12/23 08:35:11;;;;;;;16.35;11.57;;;;;;;;;;5068064;28;20059;-86
2023/12/23 08:37:38;;;;;;;18.33;11.07;;;;;;;;;;5072586;28;20365;-86
2023/12/23 08:40:08;;;;;;;17.45;11.50;;;;;;;;;;5072501;28;20061;-86
2023/12/23 08:42:35;;;;;;;19.83;12.07;;;;;;;;;;5072847;28;20057;-86
2023/12/23 08:45:01;;;;;;;18.55;11.48;;;;;;;;;;5070140;28;20052;-86
2023/12/23 08:47:28;;;;;;;15.32;10.13;;;;;;;;;;5072566;28;20056;-86
2023/12/23 08:49:55;;;;;;;17.25;11.35;;;;;;;;;;5072331;28;20055;-86
2023/12/23 08:52:22;;;;;;;20.42;10.93;;;;;;;;;;5069329;28;20051;-86
2023/12/23 08:54:48;;;;;;;17.25;10.43;;;;;;;;;;5072648;28;20048;-86
2023/12/23 08:57:17;;;;;;;19.67;11.20;;;;;;;;;;5072445;28;20061;-85
2023/12/23 08:59:43;;;;;;;24.67;12.93;;;;;;;;;;5072509;28;20520;-86
2023/12/23 09:02:10;;;;;;;21.00;13.95;;;;;;;;;;5070701;28;20075;-86
2023/12/23 09:04:37;;;;;;;18.10;12.38;;;;;;;;;;5055153;28;20414;-86
2023/12/23 09:07:04;;;;;;;20.27;12.85;;;;;;;;;;5068956;28;20409;-85
2023/12/23 09:09:31;;;;;;;18.52;12.35;;;;;;;;;;5076697;28;20049;-86
2023/12/23 09:11:57;;;;;;;16.00;12.15;;;;;;;;;;5076592;28;20060;-86
2023/12/23 09:14:26;;;;;;;24.27;13.55;;;;;;;;;;5076866;28;20048;-86
2023/12/23 09:16:53;;;;;;;19.30;13.32;;;;;;;;;;5076214;28;20056;-86
2023/12/23 09:19:20;;;;;;;21.33;13.20;;;;;;;;;;5076467;28;20045;-86
2023/12/23 09:21:46;;;;;;;21.38;12.27;;;;;;;;;;5071634;28;20053;-85
2023/12/23 09:24:13;;;;;;;20.42;12.55;;;;;;;;;;5073790;28;20059;-86
2023/12/23 09:26:41;;;;;;;22.88;11.45;;;;;;;;;;5076186;28;20079;-86
2023/12/23 09:29:08;;;;;;;15.77;10.90;;;;;;;;;;5075827;28;20048;-86
2023/12/23 09:31:36;;;;;;;20.73;12.45;;;;;;;;;;5075345;28;20055;-86
2023/12/23 09:34:03;;;;;;;22.50;11.05;;;;;;;;;;5071719;28;20402;-85
2023/12/23 09:36:30;;;;;;;20.60;10.77;;;;;;;;;;5072709;28;20444;-86
2023/12/23 09:38:56;;;;;;;16.00;9.18;;;;;;;;;;5075571;28;20051;-86
2023/12/23 09:41:23;;;;;;;21.85;10.80;;;;;;;;;;5075082;28;20056;-86
2023/12/23 09:43:51;;;;;;;16.75;9.48;;;;;;;;;;5075811;28;20056;-86
2023/12/23 09:46:17;;;;;;;17.38;8.57;;;;;;;;;;5074383;28;20100;-86
2023/12/23 09:48:46;;;;;;;11.32;7.18;;;;;;;;;;5075245;28;20049;-85
2023/12/23 09:51:12;;;;;;;18.25;8.73;;;;;;;;;;5071609;28;20401;-86
2023/12/23 09:53:42;;;;;;;16.45;8.18;;;;;;;;;;5075543;28;20052;-85
2023/12/23 09:56:09;;;;;;;17.10;7.15;;;;;;;;;;5074596;28;20127;-85
2023/12/23 09:58:36;;;;;;;17.85;6.40;;;;;;;;;;5069797;28;20045;-84
2023/12/23 10:01:03;;;;;;;10.35;5.13;;;;;;;;;;5074941;28;20063;-85
2023/12/23 10:03:30;;;;;;;15.13;5.75;;;;;;;;;;5075007;28;20057;-85
2023/12/23 10:06:00;;;;;;;12.10;5.15;;;;;;;;;;5073894;28;20524;-86
2023/12/23 10:08:27;;;;;;;15.35;6.05;;;;;;;;;;5069397;28;20049;-85
2023/12/23 10:10:54;;;;;;;11.23;4.70;;;;;;;;;;5073747;28;20052;-85
2023/12/23 10:13:21;;;;;;;11.65;4.72;;;;;;;;;;5074986;28;20048;-85
2023/12/23 10:15:47;;;;;;;15.60;5.78;;;;;;;;;;5073524;28;20056;-86
2023/12/23 10:18:14;;;;;;;12.60;4.65;;;;;;;;;;5074790;28;20128;-85
2023/12/23 10:20:43;;;;;;;12.18;4.43;;;;;;;;;;5073965;28;20052;-86
2023/12/23 10:23:11;;;;;;;10.70;4.38;;;;;;;;;;5066858;28;20045;-85
2023/12/23 10:25:38;;;;;;;16.45;5.25;;;;;;;;;;5060188;28;20055;-85
2023/12/23 10:28:07;;;;;;;11.25;4.22;;;;;;;;;;5075493;28;20056;-85
2023/12/23 10:30:35;;;;;;;10.90;3.90;;;;;;;;;;5075745;28;20059;-85
2023/12/23 10:33:05;;;;;;;13.60;3.72;;;;;;;;;;5075385;28;20052;-85
2023/12/23 10:35:33;;;;;;;13.45;3.97;;;;;;;;;;5075965;28;20071;-86
2023/12/23 10:38:02;;;;;;;11.40;3.35;;;;;;;;;;5074217;28;20052;-85
2023/12/23 10:40:31;;;;;;;9.15;3.15;;;;;;;;;;5074359;28;20059;-85
2023/12/23 10:43:00;;;;;;;7.93;3.00;;;;;;;;;;5074665;28;20048;-85
2023/12/23 10:45:27;;;;;;;8.95;2.92;;;;;;;;;;5074974;28;20072;-85
2023/12/23 10:47:53;;;;;;;9.07;3.35;;;;;;;;;;5075017;28;20052;-85
2023/12/23 10:50:22;;;;;;;6.63;3.05;;;;;;;;;;5074516;28;20465;-85
2023/12/23 10:52:50;;;;;;;6.85;2.70;;;;;;;;;;5070891;28;20056;-85
2023/12/23 10:55:17;;;;;;;9.32;3.25;;;;;;;;;;5074852;28;20057;-85
2023/12/23 10:57:48;;;;;;;8.18;3.33;;;;;;;;;;5074711;28;20056;-85
2023/12/23 11:00:15;;;;;;;9.18;3.17;;;;;;;;;;5074163;28;20056;-86
2023/12/23 11:02:42;;;;;;;9.68;2.72;;;;;;;;;;5074378;28;20055;-85
2023/12/23 11:05:09;;;;;;;7.90;3.25;;;;;;;;;;5074137;28;20063;-85
2023/12/23 11:07:39;;;;;;;6.97;3.10;;;;;;;;;;5063166;28;20053;-85
2023/12/23 11:10:06;;;;;;;6.57;2.95;;;;;;;;;;5056384;28;20379;-85
2023/12/23 11:12:34;;;;;;;8.68;3.17;;;;;;;;;;5074336;28;20053;-86
2023/12/23 11:15:03;;;;;;;5.07;2.45;;;;;;;;;;5074179;28;20049;-85
2023/12/23 11:17:31;;;;;;;8.30;3.40;;;;;;;;;;5073526;28;20061;-85
2023/12/23 11:19:59;;;;;;;7.38;2.60;;;;;;;;;;5067476;28;20045;-85
2023/12/23 11:22:27;;;;;;;8.23;3.20;;;;;;;;;;5054156;28;20051;-85
2023/12/23 11:24:54;;;;;;;8.23;2.88;;;;;;;;;;5053973;28;20482;-86
2023/12/23 11:27:39;;;;;;;7.25;3.00;;;;;;;;;;5053306;28;20064;-85
2023/12/23 11:30:08;;;;;;;8.45;2.88;;;;;;;;;;5053952;28;20093;-85
2023/12/23 11:32:36;;;;;;;6.80;3.25;;;;;;;;;;5053965;28;20424;-86
2023/12/23 11:35:04;;;;;;;6.78;3.40;;;;;;;;;;5053915;28;20045;-86
2023/12/23 11:37:46;;;;;;;5.60;3.03;;;;;;;;;;5058411;28;20053;-86
2023/12/23 11:40:14;;;;;;;9.35;3.45;;;;;;;;;;5070526;28;20045;-86
2023/12/23 11:42:41;;;;;;;5.10;3.60;;;;;;;;;;5073990;28;20063;-85
2023/12/23 11:45:10;;;;;;;7.75;4.32;;;;;;;;;;5073386;28;20052;-85
2023/12/23 11:47:37;;;;;;;5.55;4.10;;;;;;;;;;5074089;28;20048;-85
2023/12/23 11:50:05;;;;;;;6.95;4.18;;;;;;;;;;5073464;28;20045;-86
2023/12/23 11:52:31;;;;;;;7.82;4.97;;;;;;;;;;5072831;28;20049;-85
2023/12/23 11:54:58;;;;;;;8.27;4.25;;;;;;;;;;5073354;28;20059;-86
2023/12/23 11:57:25;;;;;;;6.78;4.75;;;;;;;;;;5073670;28;20433;-85
2023/12/23 11:59:52;;;;;;;8.27;5.68;;;;;;;;;;5073226;28;20060;-86
2023/12/23 12:02:20;;;;;;;9.82;5.80;;;;;;;;;;5073379;28;20067;-85
2023/12/23 12:04:47;;;;;;;9.38;6.07;;;;;;;;;;5072382;28;20048;-85
2023/12/23 12:07:14;;;;;;;8.55;5.82;;;;;;;;;;5072177;28;20401;-85
2023/12/23 12:09:41;;;;;;;10.32;5.80;;;;;;;;;;5071025;28;20053;-86
2023/12/23 12:12:08;;;;;;;8.77;5.97;;;;;;;;;;5072578;28;20053;-86
2023/12/23 12:14:35;;;;;;;9.98;6.60;;;;;;;;;;5073436;28;20053;-86
2023/12/23 12:17:01;;;;;;;6.90;5.80;;;;;;;;;;5073092;28;20055;-85
2023/12/23 12:19:30;;;;;;;8.73;5.90;;;;;;;;;;5073250;28;20052;-86
2023/12/23 12:21:57;;;;;;;12.25;7.20;;;;;;;;;;5072584;28;20392;-86
2023/12/23 12:24:23;;;;;;;10.13;7.13;;;;;;;;;;5070898;28;20048;-85
2023/12/23 12:26:52;;;;;;;15.10;8.00;;;;;;;;;;5072607;28;20056;-85
2023/12/23 12:29:19;;;;;;;14.18;8.35;;;;;;;;;;5072718;28;20048;-86
2023/12/23 12:31:46;;;;;;;12.77;8.18;;;;;;;;;;5072315;28;20048;-86
2023/12/23 12:34:13;;;;;;;11.55;7.75;;;;;;;;;;5072901;28;20052;-85
2023/12/23 12:36:41;;;;;;;12.32;8.05;;;;;;;;;;5072629;28;20056;-86
2023/12/23 12:39:08;;;;;;;13.18;8.13;;;;;;;;;;5070513;28;20055;-86
2023/12/23 12:41:37;;;;;;;14.40;7.15;;;;;;;;;;5072891;28;20044;-86
2023/12/23 12:44:04;;;;;;;10.95;7.68;;;;;;;;;;5072329;28;20049;-86
2023/12/23 12:46:33;;;;;;;14.05;8.57;;;;;;;;;;5073049;28;20052;-86
2023/12/23 12:49:01;;;;;;;12.03;6.70;;;;;;;;;;5072839;28;20056;-86
2023/12/23 12:51:28;;;;;;;10.20;6.35;;;;;;;;;;5072008;28;20502;-86
2023/12/23 12:53:56;;;;;;;10.77;6.85;;;;;;;;;;5064640;28;20053;-85
2023/12/23 12:56:23;;;;;;;10.38;5.88;;;;;;;;;;5070460;28;20055;-87
2023/12/23 12:58:50;;;;;;;12.20;6.35;;;;;;;;;;5071393;28;20048;-88
2023/12/23 13:01:17;;;;;;;9.15;4.75;;;;;;;;;;5071135;28;20045;-91
2023/12/23 13:03:44;;;;;;;11.95;5.32;;;;;;;;;;5064989;28;20060;-90
2023/12/23 13:06:11;;;;;;;9.70;4.88;;;;;;;;;;5063076;28;20063;-90
2023/12/23 13:08:38;;;;;;;11.60;5.05;;;;;;;;;;5069220;28;20056;-86
2023/12/23 13:11:06;;;;;;;9.13;4.88;;;;;;;;;;5070938;28;20070;-88
2023/12/23 13:13:33;;;;;;;5.28;3.88;;;;;;;;;;5068523;28;20060;-90
2023/12/23 13:16:00;;;;;;;13.18;4.75;;;;;;;;;;5072362;28;20056;-90
2023/12/23 13:18:28;;;;;;;8.32;4.70;;;;;;;;;;5069796;28;20049;-89
2023/12/23 13:20:55;;;;;;;11.50;4.68;;;;;;;;;;5067464;28;20048;-92
2023/12/23 13:23:22;;;;;;;11.75;4.55;;;;;;;;;;5071645;28;20049;-88
2023/12/23 13:25:49;;;;;;;6.93;4.38;;;;;;;;;;5071745;28;20060;-88
2023/12/23 13:28:18;;;;;;;6.38;3.63;;;;;;;;;;5067930;28;20406;-87
2023/12/23 13:30:45;;;;;;;11.32;5.25;;;;;;;;;;5061405;28;20049;-90
2023/12/23 13:33:11;;;;;;;10.30;4.00;;;;;;;;;;5066399;28;20477;-89
2023/12/23 13:35:39;;;;;;;10.55;4.10;;;;;;;;;;5067409;28;20497;-89
2023/12/23 13:38:06;;;;;;;10.45;4.72;;;;;;;;;;5068285;28;20048;-95
2023/12/23 13:40:33;;;;;;;12.10;4.32;;;;;;;;;;5076059;28;20045;-94
2023/12/23 13:42:59;;;;;;;11.07;4.07;;;;;;;;;;5071146;28;20508;-90
2023/12/23 13:45:28;;;;;;;9.45;4.18;;;;;;;;;;5070730;28;20079;-90
2023/12/23 13:47:54;;;;;;;11.52;4.20;;;;;;;;;;5071272;28;20401;-94
2023/12/23 13:50:22;;;;;;;10.95;3.67;;;;;;;;;;5072593;28;20048;-94
2023/12/23 13:52:49;;;;;;;9.13;3.42;;;;;;;;;;5078401;28;20052;-95
2023/12/23 13:55:15;;;;;;;10.43;3.67;;;;;;;;;;5069564;28;20059;-93
2023/12/23 13:57:42;;;;;;;10.75;3.85;;;;;;;;;;5075556;28;20056;-93
2023/12/23 14:00:09;;;;;;;9.35;3.97;;;;;;;;;;5075647;28;20051;-93
2023/12/23 14:05:19;;;;;;;7.88;3.95;;;;;;;;;;5094418;22;20489;-59
2023/12/23 14:07:45;;;;;;;8.77;3.25;;;;;;;;;;5086365;28;20052;-60
2023/12/23 14:10:14;;;;;;;12.10;4.20;;;;;;;;;;5081281;28;20118;-58
2023/12/23 14:12:40;;;;;;;10.88;3.58;;;;;;;;;;5086920;28;20051;-59
2023/12/23 14:15:08;;;;;;;6.57;3.10;;;;;;;;;;5083854;28;20457;-59
2023/12/23 14:17:34;;;;;;;9.48;3.83;;;;;;;;;;5084531;28;20060;-60
2023/12/23 14:20:01;;;;;;;9.23;4.25;;;;;;;;;;5076401;28;20048;-59
2023/12/23 14:22:29;;;;;;;8.27;3.30;;;;;;;;;;5088856;28;20048;-59
2023/12/23 14:24:56;;;;;;;8.40;3.25;;;;;;;;;;5082441;28;20066;-60
2023/12/23 14:27:23;;;;;;;7.13;2.65;;;;;;;;;;5078729;28;20056;-59
2023/12/23 14:29:50;;;;;;;8.18;2.90;;;;;;;;;;5082968;28;20056;-61
2023/12/23 14:32:17;;;;;;;7.20;2.53;;;;;;;;;;5093803;28;20055;-60
2023/12/23 14:34:43;;;;;;;7.63;3.00;;;;;;;;;;5088493;28;20623;-59
2023/12/23 14:37:10;;;;;;;9.80;3.08;;;;;;;;;;5072502;28;20059;-59